Belize, Belize

10:26 AM CST on December 22, 2014 (GMT -0600)
Astrum Helicopters - Cisco Base | Change Station
CLOSE
Current Station
Personal Weather Station
Location: Belize City, BZ
Elevation: 3 ft
Nearby Weather Stations

Elev 3 ft 17.50 °N, 88.23 °W | Updated 6 seconds ago

Mostly Cloudy
Mostly Cloudy
82.8 °F
Feels Like 89 °F
N
4.0
Wind Variable Wind from East
Gusts 9.0 mph

Today
High -- | Low -- °F
--% Chance of Precip.
Yesterday
High -- | Low -- °F
Precip. -- in
6:19 AM 5:24 PM
New Moon, 1% visible
Pressure 29.92 in
Visibility 6.2 miles
Clouds Mostly Cloudy 2100 ft
Heat Index 89 °F
Dew Point 74 °F
Humidity 75%
Rainfall 0.00 in
Snow Depth Not available.
UV 4 out of 12
Pollen Not available.
Air Quality Not available.
Flu Activity Not available.
METAR MZBZ 221600Z 13007KT 9999 BKN021 29/24 A2992 Q1013 NOSIG

More Conditions Fewer Conditions

Pressure 29.92 in
Visibility 6.2 miles
Clouds Mostly Cloudy 2100 ft
Heat Index 89 °F
Dew Point 74 °F
Humidity 75%
Rainfall 0.00 in
Snow Depth Not available.
UV 4 out of 12
Pollen Not available.
Air Quality Not available.
Flu Activity Not available.
METAR MZBZ 221600Z 13007KT 9999 BKN021 29/24 A2992 Q1013 NOSIG

More Conditions Fewer Conditions

10-Day Weather Forecast

Almanac

Astronomy

Dec. 22, 2014 Rise Set
Actual Time
Civil Twilight
Nautical Twilight
Astronomical Twilight
Moon
Length of Visible Light
Length of Day
Tomorrow will be .
, % of the Moon is Illuminated

Today's Extremes

Country Highs Country Lows

Community

WunderPhotos

Upload Photos

1,779,632 photos uploaded!

WunderBlogs® & News

Nearby

Air Quality

  Air Quality AQ Index Pollutant
Not available.

Snow Depth

Station Depth Elevation

Earthquake Activity

City Distance Mag. Time & Date
Minimum magnitude displayed is 2.5.

Coastal Water Temperatures

Place Temperature

Nearby Weather Stations